createdAt,value
2018-03-25T00:00:11.306Z,45.13
2018-03-25T00:02:38.846Z,47.53
2018-03-25T00:05:06.407Z,42.77
2018-03-25T00:07:33.922Z,43.47
2018-03-25T00:10:02.263Z,44.70
2018-03-25T00:12:30.136Z,45.13
2018-03-25T00:14:57.658Z,47.37
2018-03-25T00:17:25.251Z,45.70
2018-03-25T00:19:53.522Z,50.50
2018-03-25T00:22:21.058Z,44.57
2018-03-25T00:24:48.572Z,48.50
2018-03-25T00:27:16.870Z,46.30
2018-03-25T00:29:45.176Z,48.40
2018-03-25T00:32:12.701Z,50.40
2018-03-25T00:34:40.417Z,48.80
2018-03-25T00:37:08.796Z,44.73
2018-03-25T00:39:37.236Z,45.53
2018-03-25T00:42:04.857Z,48.93
2018-03-25T00:44:33.114Z,55.87
2018-03-25T00:47:00.655Z,48.07
2018-03-25T00:49:28.161Z,50.17
2018-03-25T00:51:55.653Z,46.80
2018-03-25T00:54:24.061Z,46.37
2018-03-25T00:56:52.362Z,45.43
2018-03-25T00:59:19.909Z,48.33
2018-03-25T01:01:48.184Z,43.77
2018-03-25T01:04:15.703Z,44.73
2018-03-25T01:06:43.274Z,48.77
2018-03-25T01:09:11.781Z,51.20
2018-03-25T01:11:39.305Z,47.00
2018-03-25T01:14:07.569Z,48.90
2018-03-25T01:16:35.398Z,51.03
2018-03-25T01:19:02.890Z,49.50
2018-03-25T01:21:30.420Z,50.53
2018-03-25T01:23:58.697Z,47.80
2018-03-25T01:26:26.971Z,48.30
2018-03-25T01:28:54.560Z,46.73
2018-03-25T01:31:22.838Z,47.80
2018-03-25T01:33:50.338Z,46.90
2018-03-25T01:36:17.888Z,51.43
2018-03-25T01:38:46.375Z,50.20
2018-03-25T01:41:14.654Z,51.73
2018-03-25T01:43:42.192Z,47.60
2018-03-25T01:46:09.695Z,49.10
2018-03-25T01:48:37.288Z,48.77
2018-03-25T01:51:05.545Z,54.70
2018-03-25T01:53:33.127Z,49.83
2018-03-25T01:56:00.829Z,48.50
2018-03-25T01:58:29.198Z,53.67
2018-03-25T02:00:57.545Z,47.43
2018-03-25T02:03:25.113Z,54.53
2018-03-25T02:05:52.683Z,50.53
2018-03-25T02:08:20.176Z,50.47
2018-03-25T02:10:47.960Z,46.13
2018-03-25T02:13:15.474Z,49.67
2018-03-25T02:15:43.767Z,45.97
2018-03-25T02:18:11.268Z,48.37
2018-03-25T02:20:39.033Z,53.37
2018-03-25T02:23:06.531Z,54.70
2018-03-25T02:25:34.140Z,47.50
2018-03-25T02:28:02.426Z,50.87
2018-03-25T02:30:30.675Z,49.97
2018-03-25T02:32:58.223Z,47.73
2018-03-25T02:35:25.777Z,49.23
2018-03-25T02:37:53.317Z,50.93
2018-03-25T02:40:20.981Z,52.30
2018-03-25T02:42:48.494Z,53.00
2018-03-25T02:45:15.991Z,51.77
2018-03-25T02:47:43.495Z,49.53
2018-03-25T02:50:11.084Z,52.30
2018-03-25T02:52:38.789Z,50.90
2018-03-25T02:55:06.331Z,50.30
2018-03-25T02:57:34.604Z,48.93
2018-03-25T03:00:02.184Z,55.23
2018-03-25T03:02:30.720Z,54.93
2018-03-25T03:04:58.970Z,53.17
2018-03-25T03:07:27.262Z,49.03
2018-03-25T03:09:55.521Z,51.27
2018-03-25T03:12:23.061Z,53.63
2018-03-25T03:14:50.564Z,50.80
2018-03-25T03:17:18.094Z,54.03
2018-03-25T03:19:45.579Z,48.63
2018-03-25T03:22:13.168Z,52.00
2018-03-25T03:24:40.747Z,54.23
2018-03-25T03:27:08.340Z,53.07
2018-03-25T03:29:36.607Z,50.63
2018-03-25T03:32:04.138Z,51.37
2018-03-25T03:34:31.714Z,52.50
2018-03-25T03:36:59.264Z,52.50
2018-03-25T03:39:26.919Z,52.23
2018-03-25T03:41:54.532Z,48.20
2018-03-25T03:44:22.087Z,53.50
2018-03-25T03:46:49.675Z,52.90
2018-03-25T03:49:17.236Z,53.30
2018-03-25T03:51:44.814Z,50.23
2018-03-25T03:54:12.349Z,52.90
2018-03-25T03:56:39.962Z,47.43
2018-03-25T03:59:07.480Z,49.27
2018-03-25T04:01:35.099Z,49.20
2018-03-25T04:04:02.589Z,48.27
2018-03-25T04:06:30.125Z,44.17
2018-03-25T04:08:57.634Z,44.83
2018-03-25T04:11:25.167Z,50.40
2018-03-25T04:13:53.445Z,48.17
2018-03-25T04:16:21.745Z,47.33
2018-03-25T04:18:49.261Z,47.80
2018-03-25T04:21:16.801Z,47.70
2018-03-25T04:23:44.351Z,49.83
2018-03-25T04:26:12.606Z,47.17
2018-03-25T04:28:40.229Z,50.00
2018-03-25T04:31:07.720Z,44.73
2018-03-25T04:33:35.249Z,47.37
2018-03-25T04:36:03.517Z,47.43
2018-03-25T04:38:31.224Z,49.03
2018-03-25T04:40:58.881Z,49.10
2018-03-25T04:43:27.181Z,44.20
2018-03-25T04:45:54.733Z,46.10
2018-03-25T04:48:23.036Z,54.70
2018-03-25T04:50:51.299Z,49.23
2018-03-25T04:53:18.820Z,51.07
2018-03-25T04:55:46.374Z,46.00
2018-03-25T04:58:14.885Z,49.27
2018-03-25T05:00:42.386Z,46.63
2018-03-25T05:03:09.891Z,50.87
2018-03-25T05:05:38.247Z,54.10
2018-03-25T05:08:05.918Z,43.90
2018-03-25T05:10:33.412Z,48.03
2018-03-25T05:13:00.929Z,49.33
2018-03-25T05:15:28.454Z,50.60
2018-03-25T05:17:56.012Z,47.67
2018-03-25T05:20:23.540Z,52.60
2018-03-25T05:22:51.044Z,49.00
2018-03-25T05:25:18.728Z,54.80
2018-03-25T05:27:46.324Z,46.37
2018-03-25T05:30:14.616Z,47.37
2018-03-25T05:32:42.938Z,44.90
2018-03-25T05:35:10.594Z,48.00
2018-03-25T05:37:38.923Z,47.17
2018-03-25T05:40:06.438Z,43.67
2018-03-25T05:42:34.700Z,49.73
2018-03-25T05:45:03.748Z,47.87
2018-03-25T05:47:31.248Z,48.33
2018-03-25T05:49:58.802Z,47.20
2018-03-25T05:52:26.532Z,44.37
2018-03-25T05:54:54.825Z,47.17
2018-03-25T05:57:22.342Z,48.07
2018-03-25T05:59:49.867Z,51.37
2018-03-25T06:02:17.387Z,47.30
2018-03-25T06:04:44.912Z,47.80
2018-03-25T06:07:13.164Z,44.73
2018-03-25T06:09:40.658Z,42.93
2018-03-25T06:12:08.241Z,40.67
2018-03-25T06:14:35.765Z,45.40
2018-03-25T06:17:03.253Z,43.80
2018-03-25T06:19:30.752Z,40.67
2018-03-25T06:21:58.293Z,41.43
2018-03-25T06:24:25.895Z,49.40
2018-03-25T06:26:54.179Z,44.73
2018-03-25T06:29:22.457Z,43.03
2018-03-25T06:31:50.008Z,48.47
2018-03-25T06:34:17.549Z,43.60
2018-03-25T06:36:45.392Z,44.40
2018-03-25T06:39:13.651Z,46.93
2018-03-25T06:41:41.203Z,50.27
2018-03-25T06:44:08.745Z,42.80
2018-03-25T06:46:36.265Z,47.90
2018-03-25T06:49:03.805Z,43.83
2018-03-25T06:51:31.323Z,43.43
2018-03-25T06:53:58.944Z,35.70
2018-03-25T06:56:26.482Z,44.17
2018-03-25T06:58:54.830Z,42.27
2018-03-25T07:01:22.390Z,47.17
2018-03-25T07:03:49.897Z,49.20
2018-03-25T07:06:18.118Z,38.27
2018-03-25T07:08:45.614Z,41.43
2018-03-25T07:11:13.171Z,43.27
2018-03-25T07:13:41.442Z,40.40
2018-03-25T07:16:09.779Z,41.83
2018-03-25T07:18:37.284Z,38.87
2018-03-25T07:21:05.702Z,37.90
2018-03-25T07:23:33.390Z,35.07
2018-03-25T07:26:00.947Z,37.90
2018-03-25T07:28:28.484Z,39.67
2018-03-25T07:30:56.095Z,42.83
2018-03-25T07:33:23.695Z,36.10
2018-03-25T07:35:51.283Z,37.00
2018-03-25T07:38:18.833Z,37.87
2018-03-25T07:40:46.501Z,34.00
2018-03-25T07:43:14.121Z,34.77
2018-03-25T07:45:42.430Z,33.07
2018-03-25T07:48:10.735Z,37.37
2018-03-25T07:50:38.253Z,36.60
2018-03-25T07:53:05.778Z,42.00
2018-03-25T07:55:33.334Z,48.37
2018-03-25T07:58:00.866Z,35.70
2018-03-25T08:00:28.431Z,40.50
2018-03-25T08:02:56.007Z,41.00
2018-03-25T08:05:25.037Z,41.00
2018-03-25T08:07:53.351Z,40.40
2018-03-25T08:10:20.854Z,41.80
2018-03-25T08:12:48.496Z,42.10
2018-03-25T08:15:16.022Z,41.47
2018-03-25T08:17:43.607Z,45.23
2018-03-25T08:20:11.099Z,37.80
2018-03-25T08:22:38.612Z,42.67
2018-03-25T08:25:06.163Z,37.80
2018-03-25T08:27:33.872Z,36.50
2018-03-25T08:30:01.499Z,36.57
2018-03-25T08:32:29.222Z,39.13
2018-03-25T08:34:56.766Z,43.77
2018-03-25T08:37:24.320Z,41.60
2018-03-25T08:39:51.900Z,38.60
2018-03-25T08:42:19.517Z,38.93
2018-03-25T08:44:47.034Z,38.63
2018-03-25T08:47:14.798Z,41.10
2018-03-25T08:49:42.361Z,40.27
2018-03-25T08:52:10.645Z,32.63
2018-03-25T08:54:39.038Z,37.10
2018-03-25T08:57:07.342Z,45.00
2018-03-25T08:59:34.920Z,36.00
2018-03-25T09:02:02.481Z,40.60
2018-03-25T09:04:29.987Z,37.83
2018-03-25T09:06:57.552Z,44.40
2018-03-25T09:09:25.202Z,35.73
2018-03-25T09:11:52.738Z,38.77
2018-03-25T09:14:20.348Z,38.47
2018-03-25T09:16:48.001Z,40.53
2018-03-25T09:19:16.287Z,39.43
2018-03-25T09:21:44.601Z,34.73
2018-03-25T09:24:12.181Z,40.73
2018-03-25T09:26:39.959Z,40.70
2018-03-25T09:29:07.544Z,40.27
2018-03-25T09:31:35.079Z,41.47
2018-03-25T09:34:03.336Z,38.50
2018-03-25T09:36:31.138Z,40.47
2018-03-25T09:38:59.437Z,41.30
2018-03-25T09:41:27.712Z,42.60
2018-03-25T09:43:55.999Z,37.13
2018-03-25T09:46:24.267Z,39.40
2018-03-25T09:48:51.806Z,41.33
2018-03-25T09:51:19.320Z,39.90
2018-03-25T09:53:46.848Z,42.57
2018-03-25T09:56:20.632Z,42.60
2018-03-25T09:58:49.039Z,39.97
2018-03-25T10:01:22.257Z,42.50
2018-03-25T10:03:49.867Z,40.20
2018-03-25T10:06:18.157Z,39.73
2018-03-25T10:08:45.669Z,40.83
2018-03-25T10:11:13.271Z,46.40
2018-03-25T10:13:40.770Z,45.30
2018-03-25T10:16:08.384Z,42.13
2018-03-25T10:18:35.932Z,44.20
2018-03-25T10:21:04.349Z,43.00
2018-03-25T10:23:31.842Z,44.97
2018-03-25T10:25:59.387Z,46.70
2018-03-25T10:28:27.046Z,52.73
2018-03-25T10:30:55.430Z,45.37
2018-03-25T10:33:23.714Z,42.00
2018-03-25T10:35:51.256Z,44.00
2018-03-25T10:38:18.806Z,44.83
2018-03-25T10:40:46.377Z,42.60
2018-03-25T10:43:14.154Z,43.73
2018-03-25T10:45:41.673Z,43.07
2018-03-25T10:48:09.251Z,42.73
2018-03-25T10:50:37.552Z,39.40
2018-03-25T10:53:05.109Z,45.20
2018-03-25T10:55:33.441Z,46.30
2018-03-25T10:58:00.999Z,43.33
2018-03-25T11:00:28.544Z,45.83
2018-03-25T11:02:56.141Z,45.30
2018-03-25T11:05:23.693Z,43.40
2018-03-25T11:07:51.998Z,44.53
2018-03-25T11:10:19.544Z,45.83
2018-03-25T11:12:47.176Z,40.60
2018-03-25T11:15:14.687Z,46.47
2018-03-25T11:17:43.040Z,42.97
2018-03-25T11:20:10.672Z,51.30
2018-03-25T11:22:38.257Z,42.13
2018-03-25T11:25:05.811Z,50.27
2018-03-25T11:27:34.120Z,41.20
2018-03-25T11:30:01.664Z,44.37
2018-03-25T11:32:29.978Z,47.47
2018-03-25T11:34:57.512Z,46.70
2018-03-25T11:37:25.796Z,47.40
2018-03-25T11:39:54.092Z,49.40
2018-03-25T11:42:22.435Z,45.83
2018-03-25T11:44:49.954Z,44.70
2018-03-25T11:47:18.240Z,48.33
2018-03-25T11:49:46.638Z,48.00
2018-03-25T11:52:14.307Z,46.33
2018-03-25T11:54:42.736Z,47.10
2018-03-25T11:57:10.278Z,44.63
2018-03-25T11:59:38.663Z,44.90
2018-03-25T12:02:06.968Z,45.73
2018-03-25T12:04:34.459Z,44.47
2018-03-25T12:07:02.131Z,45.53
2018-03-25T12:09:30.244Z,47.37
2018-03-25T12:11:57.806Z,47.60
2018-03-25T12:14:25.344Z,44.63
2018-03-25T12:16:52.862Z,47.97
2018-03-25T12:19:20.363Z,49.03
2018-03-25T12:21:48.697Z,47.10
2018-03-25T12:24:16.202Z,44.53
2018-03-25T12:26:43.758Z,47.90
2018-03-25T12:29:11.252Z,47.27
2018-03-25T12:31:38.811Z,44.90
2018-03-25T12:34:06.306Z,42.37
2018-03-25T12:36:34.616Z,43.77
2018-03-25T12:39:02.123Z,42.97
2018-03-25T12:41:29.752Z,47.70
2018-03-25T12:43:57.295Z,42.83
2018-03-25T12:46:25.866Z,43.90
2018-03-25T12:48:53.388Z,45.67
2018-03-25T12:51:21.041Z,40.97
2018-03-25T12:53:49.340Z,43.80
2018-03-25T12:56:17.604Z,42.03
2018-03-25T12:58:45.175Z,42.23
2018-03-25T13:01:12.858Z,45.90
2018-03-25T13:03:40.439Z,41.90
2018-03-25T13:06:08.710Z,45.03
2018-03-25T13:08:36.241Z,43.20
2018-03-25T13:11:03.738Z,42.80
2018-03-25T13:13:31.513Z,43.47
2018-03-25T13:15:59.039Z,43.57
2018-03-25T13:18:26.876Z,43.13
2018-03-25T13:20:55.190Z,46.80
2018-03-25T13:23:22.765Z,45.50
2018-03-25T13:25:51.045Z,43.80
2018-03-25T13:28:20.022Z,45.33
2018-03-25T13:30:47.539Z,44.50
2018-03-25T13:33:15.099Z,47.20
2018-03-25T13:35:43.384Z,46.60
2018-03-25T13:38:11.870Z,51.77
2018-03-25T13:40:40.298Z,40.73
2018-03-25T13:43:07.836Z,49.20
2018-03-25T13:45:36.867Z,42.13
2018-03-25T13:48:04.391Z,44.47
2018-03-25T13:50:31.940Z,47.00
2018-03-25T13:52:59.436Z,47.20
2018-03-25T13:55:27.064Z,42.87
2018-03-25T13:57:54.554Z,42.07
2018-03-25T14:00:22.107Z,41.37
2018-03-25T14:02:49.610Z,49.63
2018-03-25T14:05:17.149Z,43.00
2018-03-25T14:07:44.858Z,43.33
2018-03-25T14:10:12.360Z,44.40
2018-03-25T14:12:40.703Z,44.10
2018-03-25T14:15:08.229Z,48.47
2018-03-25T14:17:35.791Z,46.80
2018-03-25T14:20:04.255Z,39.37
2018-03-25T14:22:31.776Z,41.90
2018-03-25T14:24:59.281Z,45.23
2018-03-25T14:27:26.848Z,41.73
2018-03-25T14:29:54.424Z,43.63
2018-03-25T14:32:21.937Z,43.60
2018-03-25T14:34:50.240Z,42.60
2018-03-25T14:37:17.725Z,52.57
2018-03-25T14:39:45.420Z,40.10
2018-03-25T14:42:12.928Z,41.87
2018-03-25T14:44:41.366Z,42.53
2018-03-25T14:47:09.392Z,44.70
2018-03-25T14:49:36.967Z,46.43
2018-03-25T14:52:04.556Z,40.50
2018-03-25T14:54:32.140Z,40.07
2018-03-25T14:56:59.810Z,41.77
2018-03-25T14:59:28.121Z,43.50
2018-03-25T15:01:55.689Z,43.17
2018-03-25T15:04:24.192Z,46.57
2018-03-25T15:06:51.789Z,43.90
2018-03-25T15:09:19.647Z,44.73
2018-03-25T15:11:47.224Z,44.90
2018-03-25T15:14:14.807Z,45.93
2018-03-25T15:16:42.355Z,41.57
2018-03-25T15:19:09.920Z,46.03
2018-03-25T15:21:37.489Z,43.30
2018-03-25T15:24:05.093Z,42.10
2018-03-25T15:26:32.600Z,48.83
2018-03-25T15:29:00.992Z,47.33
2018-03-25T15:31:29.297Z,42.50
2018-03-25T15:33:57.794Z,46.87
2018-03-25T15:36:25.362Z,43.77
2018-03-25T15:38:52.863Z,45.67
2018-03-25T15:41:21.128Z,44.33
2018-03-25T15:43:48.638Z,44.83
2018-03-25T15:46:16.270Z,43.13
2018-03-25T15:48:43.803Z,39.77
2018-03-25T15:51:11.330Z,43.40
2018-03-25T15:53:38.840Z,45.80
2018-03-25T15:56:06.401Z,43.87
2018-03-25T15:58:33.930Z,40.50
2018-03-25T16:01:02.104Z,38.57
2018-03-25T16:03:29.665Z,40.30
2018-03-25T16:05:58.697Z,44.67
2018-03-25T16:08:26.867Z,43.53
2018-03-25T16:10:55.133Z,44.37
2018-03-25T16:13:22.672Z,44.13
2018-03-25T16:15:50.207Z,46.80
2018-03-25T16:18:17.792Z,47.90
2018-03-25T16:20:45.362Z,43.50
2018-03-25T16:23:12.870Z,44.43
2018-03-25T16:25:40.475Z,43.37
2018-03-25T16:28:08.835Z,47.57
2018-03-25T16:30:36.340Z,41.83
2018-03-25T16:33:04.667Z,46.67
2018-03-25T16:35:32.231Z,47.50
2018-03-25T16:38:00.093Z,47.43
2018-03-25T16:40:27.672Z,47.83
2018-03-25T16:45:29.086Z,49.10
2018-03-25T16:47:56.656Z,44.83
2018-03-25T16:50:24.268Z,42.30
2018-03-25T16:52:51.819Z,46.60
2018-03-25T16:55:19.927Z,43.33
2018-03-25T16:57:48.554Z,46.93
2018-03-25T17:00:16.118Z,42.40
2018-03-25T17:02:43.612Z,41.93
2018-03-25T17:05:11.160Z,41.93
2018-03-25T17:07:38.725Z,49.50
2018-03-25T17:10:06.383Z,46.10
2018-03-25T17:12:33.991Z,40.30
2018-03-25T17:15:01.544Z,44.73
2018-03-25T17:17:29.124Z,49.37
2018-03-25T17:19:56.655Z,46.70
2018-03-25T17:22:24.215Z,50.93
2018-03-25T17:24:51.717Z,42.13
2018-03-25T17:27:19.999Z,44.77
2018-03-25T17:29:48.306Z,61.17
2018-03-25T17:32:16.590Z,47.00
2018-03-25T17:34:44.875Z,47.90
2018-03-25T17:37:13.166Z,46.27
2018-03-25T17:39:41.490Z,43.17
2018-03-25T17:42:09.033Z,40.43
2018-03-25T17:44:37.634Z,37.20
2018-03-25T17:47:07.837Z,41.93
2018-03-25T17:49:36.350Z,41.20
2018-03-25T17:52:04.728Z,42.63
2018-03-25T17:54:32.231Z,41.03
2018-03-25T17:57:00.445Z,42.00
2018-03-25T17:59:28.006Z,48.00
2018-03-25T18:01:55.603Z,57.30
2018-03-25T18:04:23.186Z,48.90
2018-03-25T18:06:50.889Z,43.63
2018-03-25T18:09:19.193Z,46.50
2018-03-25T18:11:46.725Z,49.30
2018-03-25T18:14:14.293Z,71.90
2018-03-25T18:16:44.609Z,63.70
2018-03-25T18:19:12.164Z,46.77
2018-03-25T18:21:39.745Z,54.40
2018-03-25T18:24:07.360Z,58.67
2018-03-25T18:26:35.663Z,55.47
2018-03-25T18:29:03.978Z,49.20
2018-03-25T18:31:31.637Z,49.37
2018-03-25T18:33:59.663Z,45.93
2018-03-25T18:36:28.745Z,49.03
2018-03-25T18:38:56.307Z,49.10
2018-03-25T18:41:24.458Z,54.03
2018-03-25T18:43:52.741Z,48.33
2018-03-25T18:46:21.160Z,48.93
2018-03-25T18:48:48.861Z,50.90
2018-03-25T18:51:16.925Z,50.77
2018-03-25T18:53:44.667Z,49.30
2018-03-25T18:56:12.262Z,52.53
2018-03-25T18:58:39.892Z,57.57
2018-03-25T19:01:07.526Z,60.17
2018-03-25T19:03:35.124Z,57.40
2018-03-25T19:06:02.805Z,60.70
2018-03-25T19:08:30.355Z,54.80
2018-03-25T19:10:58.024Z,57.40
2018-03-25T19:13:25.617Z,59.90
2018-03-25T19:15:53.193Z,53.43
2018-03-25T19:18:21.323Z,60.67
2018-03-25T19:20:49.727Z,55.17
2018-03-25T19:23:18.018Z,56.90
2018-03-25T19:25:45.578Z,54.13
2018-03-25T19:28:14.791Z,55.20
2018-03-25T19:30:42.385Z,66.07
2018-03-25T19:33:09.941Z,55.60
2018-03-25T19:35:37.497Z,56.50
2018-03-25T19:38:05.812Z,54.13
2018-03-25T19:40:33.587Z,57.37
2018-03-25T19:43:01.151Z,57.63
2018-03-25T19:45:28.931Z,63.90
2018-03-25T19:47:56.515Z,59.90
2018-03-25T19:50:24.032Z,56.17
2018-03-25T19:52:51.611Z,56.67
2018-03-25T19:55:19.138Z,54.17
2018-03-25T19:57:46.759Z,55.10
2018-03-25T20:00:15.120Z,58.43
2018-03-25T20:02:42.681Z,58.07
2018-03-25T20:05:10.267Z,55.23
2018-03-25T20:07:37.964Z,59.67
2018-03-25T20:10:05.592Z,53.47
2018-03-25T20:12:33.203Z,53.07
2018-03-25T20:15:00.771Z,58.57
2018-03-25T20:17:28.468Z,54.83
2018-03-25T20:19:56.740Z,33.80
2018-03-25T20:22:25.045Z,41.67
2018-03-25T20:24:53.333Z,50.77
2018-03-25T20:27:21.669Z,49.90
2018-03-25T20:29:49.220Z,51.40
2018-03-25T20:32:16.880Z,51.27
2018-03-25T20:34:44.461Z,51.03
2018-03-25T20:37:12.024Z,46.93
2018-03-25T20:39:39.608Z,51.03
2018-03-25T20:42:07.137Z,50.20
2018-03-25T20:44:34.681Z,57.83
2018-03-25T20:47:02.197Z,48.27
2018-03-25T20:49:29.890Z,52.83
2018-03-25T20:51:57.413Z,47.97
2018-03-25T20:54:24.990Z,49.87
2018-03-25T20:56:52.510Z,51.33
2018-03-25T20:59:20.065Z,53.77
2018-03-25T21:01:47.659Z,47.97
2018-03-25T21:04:15.190Z,45.83
2018-03-25T21:06:43.635Z,54.97
2018-03-25T21:09:11.202Z,50.60
2018-03-25T21:11:39.350Z,47.83
2018-03-25T21:14:07.692Z,44.70
2018-03-25T21:16:35.226Z,48.17
2018-03-25T21:19:03.161Z,47.37
2018-03-25T21:21:30.682Z,42.30
2018-03-25T21:23:58.253Z,43.93
2018-03-25T21:26:25.789Z,43.70
2018-03-25T21:28:54.087Z,41.50
2018-03-25T21:31:21.647Z,44.10
2018-03-25T21:33:50.027Z,45.00
2018-03-25T21:36:19.156Z,45.60
2018-03-25T21:38:46.665Z,41.77
2018-03-25T21:41:15.003Z,45.90
2018-03-25T21:43:42.618Z,44.33
2018-03-25T21:46:10.159Z,48.50
2018-03-25T21:48:38.974Z,44.90
2018-03-25T21:51:06.540Z,46.73
2018-03-25T21:53:34.867Z,41.27
2018-03-25T21:56:02.491Z,43.00
2018-03-25T21:58:30.072Z,43.17
2018-03-25T22:00:58.354Z,46.03
2018-03-25T22:03:25.917Z,46.77
2018-03-25T22:05:53.528Z,46.07
2018-03-25T22:08:21.023Z,40.93
2018-03-25T22:10:48.611Z,43.20
2018-03-25T22:13:16.101Z,43.93
2018-03-25T22:15:43.792Z,43.77
2018-03-25T22:18:11.362Z,45.47
2018-03-25T22:20:39.769Z,47.37
2018-03-25T22:23:07.275Z,49.30
2018-03-25T22:25:34.811Z,45.60
2018-03-25T22:28:02.325Z,48.43
2018-03-25T22:30:29.851Z,46.37
2018-03-25T22:32:57.375Z,49.00
2018-03-25T22:35:24.912Z,49.07
2018-03-25T22:37:52.449Z,50.33
2018-03-25T22:40:20.753Z,48.77
2018-03-25T22:42:48.284Z,45.40
2018-03-25T22:45:15.897Z,46.33
2018-03-25T22:47:43.403Z,41.60
2018-03-25T22:50:10.973Z,45.07
2018-03-25T22:52:38.498Z,46.47
2018-03-25T22:55:06.996Z,41.27
2018-03-25T22:57:34.502Z,41.10
2018-03-25T23:00:02.029Z,44.87
2018-03-25T23:02:29.517Z,44.83
2018-03-25T23:04:57.038Z,46.87
2018-03-25T23:07:24.537Z,42.77
2018-03-25T23:09:53.051Z,46.00
2018-03-25T23:12:20.756Z,43.10
2018-03-25T23:14:48.258Z,44.00
2018-03-25T23:17:15.783Z,43.77
2018-03-25T23:19:43.286Z,48.80
2018-03-25T23:22:13.376Z,47.03
2018-03-25T23:24:41.083Z,44.00
2018-03-25T23:27:08.604Z,44.17
2018-03-25T23:29:36.169Z,42.10
2018-03-25T23:32:04.546Z,42.67
2018-03-25T23:34:32.798Z,45.50
2018-03-25T23:37:00.499Z,44.53
2018-03-25T23:39:27.994Z,43.57
2018-03-25T23:41:55.478Z,49.07
2018-03-25T23:44:23.239Z,42.07
2018-03-25T23:46:51.508Z,41.47
2018-03-25T23:49:19.808Z,45.47
2018-03-25T23:51:48.062Z,47.67
2018-03-25T23:54:15.586Z,50.10
2018-03-25T23:56:43.074Z,42.73
2018-03-25T23:59:10.687Z,43.17
